createdAt,value
2022-10-08T00:01:21.520Z,68.57
2022-10-08T00:03:51.766Z,68.36
2022-10-08T00:06:31.580Z,68.48
2022-10-08T00:09:04.741Z,68.87
2022-10-08T00:11:37.081Z,68.92
2022-10-08T00:14:04.244Z,69.35
2022-10-08T00:16:42.443Z,69.13
2022-10-08T00:19:13.935Z,69.63
2022-10-08T00:21:43.235Z,69.55
2022-10-08T00:24:11.456Z,70.05
2022-10-08T00:26:43.517Z,69.59
2022-10-08T00:29:13.827Z,69.48
2022-10-08T00:31:42.672Z,69.56
2022-10-08T00:34:13.300Z,69.29
2022-10-08T00:36:42.483Z,69.50
2022-10-08T00:39:17.650Z,70.01
2022-10-08T00:41:48.490Z,70.22
2022-10-08T00:44:55.554Z,70.23
2022-10-08T00:47:37.701Z,69.86
2022-10-08T00:50:25.116Z,69.99
2022-10-08T00:53:08.263Z,70.09
2022-10-08T00:55:38.902Z,70.05
2022-10-08T00:58:16.506Z,69.76
2022-10-08T01:00:44.505Z,69.70
2022-10-08T01:03:13.435Z,69.85
2022-10-08T01:06:05.077Z,69.88
2022-10-08T01:08:46.799Z,69.68
2022-10-08T01:11:37.332Z,69.85
2022-10-08T01:14:39.350Z,69.92
2022-10-08T01:17:38.890Z,69.66
2022-10-08T01:20:14.648Z,69.74
2022-10-08T01:22:59.525Z,70.28
2022-10-08T01:25:58.545Z,71.47
2022-10-08T01:28:25.269Z,71.77
2022-10-08T01:30:56.523Z,71.48
2022-10-08T01:33:35.808Z,71.29
2022-10-08T01:36:07.491Z,71.10
2022-10-08T01:38:35.838Z,71.09
2022-10-08T01:41:12.425Z,70.95
2022-10-08T01:43:44.137Z,70.92
2022-10-08T01:46:14.713Z,70.70
2022-10-08T01:48:46.730Z,70.56
2022-10-08T01:51:24.009Z,70.61
2022-10-08T01:53:51.346Z,70.75
2022-10-08T01:56:23.734Z,70.55
2022-10-08T01:58:54.568Z,70.54
2022-10-08T02:01:36.552Z,70.73
2022-10-08T02:04:22.213Z,70.91
2022-10-08T02:06:54.484Z,70.67
2022-10-08T02:09:24.521Z,70.74
2022-10-08T02:11:51.283Z,70.65
2022-10-08T02:14:23.993Z,70.60
2022-10-08T02:17:00.067Z,70.60
2022-10-08T02:19:58.176Z,70.77
2022-10-08T02:22:32.756Z,70.70
2022-10-08T02:25:22.194Z,70.57
2022-10-08T02:27:57.877Z,70.42
2022-10-08T02:30:25.019Z,70.42
2022-10-08T02:33:05.859Z,70.51
2022-10-08T02:35:53.803Z,70.61
2022-10-08T02:41:46.949Z,70.43
2022-10-08T02:44:17.198Z,70.40
2022-10-08T02:47:11.223Z,70.67
2022-10-08T02:49:41.597Z,70.72
2022-10-08T02:52:14.662Z,70.71
2022-10-08T02:54:44.603Z,70.55
2022-10-08T02:57:20.991Z,70.72
2022-10-08T02:59:48.676Z,70.59
2022-10-08T03:02:22.893Z,70.43
2022-10-08T03:04:56.913Z,70.42
2022-10-08T03:07:26.442Z,70.47
2022-10-08T03:09:54.196Z,70.38
2022-10-08T03:16:14.700Z,70.38
2022-10-08T03:19:12.717Z,70.23
2022-10-08T03:21:46.547Z,70.15
2022-10-08T03:24:14.301Z,70.27
2022-10-08T03:27:02.144Z,70.40
2022-10-08T03:30:06.417Z,70.50
2022-10-08T03:32:58.759Z,70.77
2022-10-08T03:35:25.621Z,70.94
2022-10-08T03:38:01.717Z,71.00
2022-10-08T03:40:30.994Z,70.92
2022-10-08T03:43:02.090Z,70.85
2022-10-08T03:46:12.653Z,70.78
2022-10-08T03:48:48.716Z,70.54
2022-10-08T03:51:45.451Z,70.79
2022-10-08T03:54:20.625Z,70.22
2022-10-08T03:56:49.875Z,70.30
2022-10-08T03:59:16.766Z,70.57
2022-10-08T04:01:46.043Z,70.55
2022-10-08T04:04:25.960Z,70.80
2022-10-08T04:07:38.251Z,70.77
2022-10-08T04:10:08.238Z,70.74
2022-10-08T04:12:42.224Z,70.57
2022-10-08T04:15:09.440Z,70.75
2022-10-08T04:17:41.262Z,70.54
2022-10-08T04:20:14.752Z,70.52
2022-10-08T04:23:10.623Z,70.45
2022-10-08T04:25:49.080Z,70.39
2022-10-08T04:28:18.361Z,70.95
2022-10-08T04:31:01.199Z,71.05
2022-10-08T04:36:26.799Z,71.08
2022-10-08T04:38:53.511Z,71.04
2022-10-08T04:41:31.956Z,71.08
2022-10-08T04:44:03.413Z,71.26
2022-10-08T04:46:32.324Z,71.29
2022-10-08T04:49:04.604Z,71.33
2022-10-08T04:51:33.457Z,71.42
2022-10-08T04:54:02.866Z,71.04
2022-10-08T04:56:37.393Z,71.29
2022-10-08T04:59:06.673Z,71.19
2022-10-08T05:01:39.165Z,71.24
2022-10-08T05:04:11.184Z,71.02
2022-10-08T05:06:47.708Z,71.21
2022-10-08T05:09:14.416Z,71.09
2022-10-08T05:11:44.949Z,71.34
2022-10-08T05:14:11.728Z,71.65
2022-10-08T05:16:41.149Z,71.72
2022-10-08T05:19:12.559Z,71.78
2022-10-08T05:21:43.804Z,71.64
2022-10-08T05:24:14.400Z,71.66
2022-10-08T05:29:30.174Z,71.30
2022-10-08T05:31:59.471Z,71.35
2022-10-08T05:34:28.420Z,71.47
2022-10-08T05:36:57.682Z,71.38
2022-10-08T05:39:26.877Z,71.27
2022-10-08T05:41:54.326Z,71.30
2022-10-08T05:44:23.538Z,71.32
2022-10-08T05:46:50.338Z,71.15
2022-10-08T05:49:20.306Z,71.10
2022-10-08T05:51:50.633Z,71.44
2022-10-08T05:54:18.004Z,71.19
2022-10-08T05:56:44.959Z,71.36
2022-10-08T05:59:26.160Z,70.83
2022-10-08T06:01:52.926Z,71.02
2022-10-08T06:04:19.833Z,70.92
2022-10-08T06:06:48.772Z,70.77
2022-10-08T06:09:18.495Z,70.78
2022-10-08T06:11:45.895Z,70.61
2022-10-08T06:14:20.497Z,70.52
2022-10-08T06:17:09.670Z,70.50
2022-10-08T06:19:38.805Z,70.25
2022-10-08T06:22:08.785Z,70.25
2022-10-08T06:24:35.539Z,70.24
2022-10-08T06:27:04.464Z,70.13
2022-10-08T06:29:33.383Z,69.96
2022-10-08T06:32:00.082Z,69.98
2022-10-08T06:34:26.786Z,69.81
2022-10-08T06:36:55.746Z,69.82
2022-10-08T06:39:22.385Z,69.69
2022-10-08T06:41:49.069Z,69.71
2022-10-08T06:44:21.289Z,69.79
2022-10-08T06:46:53.930Z,69.72
2022-10-08T06:49:22.169Z,69.67
2022-10-08T06:51:49.737Z,69.69
2022-10-08T06:54:16.448Z,69.48
2022-10-08T06:56:43.297Z,68.91
2022-10-08T06:59:10.113Z,69.28
2022-10-08T07:01:37.146Z,68.95
2022-10-08T07:04:05.065Z,68.58
2022-10-08T07:06:34.963Z,68.38
2022-10-08T07:09:05.140Z,68.72
2022-10-08T07:11:35.023Z,68.40
2022-10-08T07:14:06.329Z,68.37
2022-10-08T07:16:33.077Z,68.13
2022-10-08T07:19:00.360Z,67.85
2022-10-08T07:21:28.164Z,67.95
2022-10-08T07:23:54.958Z,68.09
2022-10-08T07:26:24.388Z,67.91
2022-10-08T07:29:00.497Z,67.78
2022-10-08T07:31:29.918Z,67.76
2022-10-08T07:33:57.521Z,67.60
2022-10-08T07:36:27.414Z,67.30
2022-10-08T07:38:59.124Z,66.88
2022-10-08T07:41:26.628Z,66.90
2022-10-08T07:44:03.216Z,66.67
2022-10-08T07:46:35.201Z,66.60
2022-10-08T07:49:03.155Z,66.11
2022-10-08T07:51:33.071Z,66.13
2022-10-08T07:54:03.653Z,65.79
2022-10-08T07:56:33.941Z,65.77
2022-10-08T07:59:04.236Z,65.64
2022-10-08T08:01:36.231Z,65.31
2022-10-08T08:04:05.870Z,65.01
2022-10-08T08:06:42.820Z,65.07
2022-10-08T08:09:15.165Z,65.16
2022-10-08T08:11:46.092Z,64.82
2022-10-08T08:14:17.151Z,63.97
2022-10-08T08:16:44.874Z,63.59
2022-10-08T08:19:14.855Z,64.02
2022-10-08T08:21:43.554Z,63.78
2022-10-08T08:24:14.027Z,63.51
2022-10-08T08:26:45.886Z,63.35
2022-10-08T08:29:19.182Z,62.70
2022-10-08T08:31:49.562Z,62.47
2022-10-08T08:34:18.971Z,62.56
2022-10-08T08:36:53.770Z,62.03
2022-10-08T08:39:27.858Z,61.80
2022-10-08T08:42:20.330Z,62.00
2022-10-08T08:44:54.116Z,61.42
2022-10-08T08:47:41.481Z,60.61
2022-10-08T08:50:27.814Z,61.03
2022-10-08T08:52:57.234Z,60.66
2022-10-08T08:55:35.092Z,60.51
2022-10-08T08:58:41.318Z,60.34
2022-10-08T09:01:36.584Z,60.18
2022-10-08T09:04:11.411Z,60.29
2022-10-08T09:06:40.938Z,59.18
2022-10-08T09:09:22.878Z,59.48
2022-10-08T09:11:49.642Z,58.77
2022-10-08T09:14:37.575Z,58.41
2022-10-08T09:17:16.764Z,58.42
2022-10-08T09:19:43.472Z,58.13
2022-10-08T09:22:23.096Z,57.43
2022-10-08T09:25:25.934Z,57.40
2022-10-08T09:28:06.343Z,57.78
2022-10-08T09:30:33.114Z,57.14
2022-10-08T09:33:04.822Z,56.43
2022-10-08T09:35:37.794Z,56.63
2022-10-08T09:38:09.296Z,56.15
2022-10-08T09:40:36.002Z,56.01
2022-10-08T09:43:16.746Z,55.49
2022-10-08T09:45:48.241Z,55.45
2022-10-08T09:48:27.694Z,54.65
2022-10-08T09:51:04.379Z,53.99
2022-10-08T09:53:43.087Z,52.93
2022-10-08T09:56:36.414Z,53.17
2022-10-08T09:59:13.637Z,53.70
2022-10-08T10:01:49.398Z,52.16
2022-10-08T10:04:35.506Z,52.80
2022-10-08T10:07:05.025Z,52.25
2022-10-08T10:09:42.598Z,52.42
2022-10-08T10:12:28.701Z,52.03
2022-10-08T10:14:59.604Z,51.83
2022-10-08T10:17:39.761Z,50.73
2022-10-08T10:20:18.113Z,50.38
2022-10-08T10:22:59.550Z,49.79
2022-10-08T10:25:47.784Z,49.54
2022-10-08T10:28:24.124Z,50.19
2022-10-08T10:31:07.654Z,49.85
2022-10-08T10:33:41.781Z,49.38
2022-10-08T10:36:14.405Z,49.22
2022-10-08T10:39:25.872Z,47.35
2022-10-08T10:42:15.436Z,47.07
2022-10-08T10:45:18.410Z,46.53
2022-10-08T10:47:54.675Z,46.62
2022-10-08T10:50:35.754Z,45.30
2022-10-08T10:53:37.478Z,44.65
2022-10-08T10:56:21.034Z,45.33
2022-10-08T10:59:02.626Z,44.98
2022-10-08T11:01:45.631Z,44.64
2022-10-08T11:04:37.256Z,43.19
2022-10-08T11:07:38.025Z,43.24
2022-10-08T11:10:42.211Z,42.40
2022-10-08T11:13:27.296Z,42.16
2022-10-08T11:16:11.903Z,41.80
2022-10-08T11:18:53.893Z,40.52
2022-10-08T11:21:47.942Z,40.64
2022-10-08T11:24:28.070Z,39.72
2022-10-08T11:27:12.780Z,41.35
2022-10-08T11:29:49.842Z,41.12
2022-10-08T11:32:22.447Z,40.16
2022-10-08T11:35:11.846Z,38.78
2022-10-08T11:38:12.702Z,38.88
2022-10-08T11:40:48.715Z,37.60
2022-10-08T11:43:15.356Z,38.37
2022-10-08T11:45:46.225Z,39.14
2022-10-08T11:48:35.152Z,38.70
2022-10-08T11:51:20.081Z,37.18
2022-10-08T11:54:14.668Z,37.56
2022-10-08T11:56:50.025Z,38.45
2022-10-08T11:59:36.793Z,37.22
2022-10-08T12:02:19.457Z,38.41
2022-10-08T12:04:48.927Z,36.35
2022-10-08T12:07:15.606Z,36.88
2022-10-08T12:10:09.008Z,34.50
2022-10-08T12:12:51.159Z,34.84
2022-10-08T12:15:40.553Z,34.81
2022-10-08T12:18:13.466Z,35.59
2022-10-08T12:20:43.440Z,37.03
2022-10-08T12:23:15.925Z,35.91
2022-10-08T12:25:50.813Z,36.12
2022-10-08T12:28:20.576Z,36.44
2022-10-08T12:30:54.842Z,32.22
2022-10-08T12:33:25.243Z,35.73
2022-10-08T12:36:29.168Z,33.39
2022-10-08T12:39:28.993Z,33.16
2022-10-08T12:42:06.700Z,32.52
2022-10-08T12:45:00.455Z,33.90
2022-10-08T12:47:50.545Z,33.30
2022-10-08T12:50:23.441Z,32.63
2022-10-08T12:52:53.388Z,32.36
2022-10-08T12:55:24.343Z,32.06
2022-10-08T12:57:51.311Z,32.01
2022-10-08T13:00:30.695Z,31.93
2022-10-08T13:03:03.561Z,31.45
2022-10-08T13:05:31.746Z,31.73
2022-10-08T13:08:15.085Z,31.52
2022-10-08T13:10:42.932Z,31.58
2022-10-08T13:13:34.407Z,31.25
2022-10-08T13:16:01.535Z,31.09
2022-10-08T13:18:35.616Z,32.24
2022-10-08T13:21:20.575Z,32.40
2022-10-08T13:23:47.273Z,32.88
2022-10-08T13:26:44.848Z,33.86
2022-10-08T13:29:23.785Z,34.70
2022-10-08T13:32:05.447Z,35.04
2022-10-08T13:34:37.588Z,35.31
2022-10-08T13:37:12.301Z,34.75
2022-10-08T13:39:41.149Z,34.89
2022-10-08T13:42:15.213Z,34.01
2022-10-08T13:44:45.639Z,34.75
2022-10-08T13:47:17.101Z,35.43
2022-10-08T13:49:48.904Z,34.57
2022-10-08T13:52:23.468Z,35.05
2022-10-08T13:54:53.290Z,35.76
2022-10-08T13:57:19.989Z,35.52
2022-10-08T13:59:46.686Z,36.20
2022-10-08T14:02:14.219Z,36.24
2022-10-08T14:04:41.202Z,36.34
2022-10-08T14:07:23.109Z,35.83
2022-10-08T14:09:49.836Z,36.03
2022-10-08T14:12:23.245Z,36.16
2022-10-08T14:14:49.942Z,36.14
2022-10-08T14:17:18.845Z,36.57
2022-10-08T14:19:45.369Z,36.06
2022-10-08T14:22:12.529Z,36.04
2022-10-08T14:24:41.524Z,35.25
2022-10-08T14:27:10.568Z,34.90
2022-10-08T14:29:37.442Z,34.32
2022-10-08T14:32:05.636Z,34.14
2022-10-08T14:34:32.397Z,34.32
2022-10-08T14:37:01.616Z,33.92
2022-10-08T14:39:31.514Z,34.48
2022-10-08T14:41:58.775Z,34.43
2022-10-08T14:44:25.539Z,34.93
2022-10-08T14:46:57.276Z,35.39
2022-10-08T14:49:24.168Z,35.49
2022-10-08T14:51:50.982Z,35.39
2022-10-08T14:54:21.264Z,35.68
2022-10-08T14:56:48.001Z,36.36
2022-10-08T14:59:14.932Z,36.49
2022-10-08T15:01:41.666Z,37.04
2022-10-08T15:04:13.297Z,37.05
2022-10-08T15:06:42.645Z,37.48
2022-10-08T15:09:17.249Z,37.11
2022-10-08T15:11:44.021Z,37.32
2022-10-08T15:14:10.710Z,37.66
2022-10-08T15:16:40.157Z,37.97
2022-10-08T15:19:10.379Z,38.18
2022-10-08T15:21:39.658Z,37.71
2022-10-08T15:24:06.493Z,38.18
2022-10-08T15:26:35.422Z,38.77
2022-10-08T15:29:06.842Z,38.52
2022-10-08T15:31:44.552Z,39.03
2022-10-08T15:34:18.670Z,39.71
2022-10-08T15:36:45.831Z,39.92
2022-10-08T15:39:17.515Z,40.03
2022-10-08T15:41:46.884Z,39.96
2022-10-08T15:44:22.103Z,40.17
2022-10-08T15:46:50.542Z,40.02
2022-10-08T15:49:17.347Z,40.60
2022-10-08T15:51:44.098Z,41.29
2022-10-08T15:54:10.822Z,42.24
2022-10-08T15:56:39.808Z,42.42
2022-10-08T15:59:06.977Z,43.95
2022-10-08T16:01:47.254Z,43.53
2022-10-08T16:04:16.899Z,43.71
2022-10-08T16:06:48.098Z,44.29
2022-10-08T16:09:19.224Z,44.83
2022-10-08T16:11:46.595Z,45.45
2022-10-08T16:14:16.114Z,45.79
2022-10-08T16:16:45.577Z,46.28
2022-10-08T16:19:19.568Z,47.01
2022-10-08T16:21:48.138Z,46.87
2022-10-08T16:24:20.186Z,47.21
2022-10-08T16:26:48.686Z,47.95
2022-10-08T16:29:16.880Z,48.07
2022-10-08T16:31:46.776Z,48.42
2022-10-08T16:34:15.120Z,48.99
2022-10-08T16:36:42.505Z,49.41
2022-10-08T16:39:13.516Z,49.91
2022-10-08T16:41:43.631Z,50.20
2022-10-08T16:44:13.255Z,50.36
2022-10-08T16:46:45.408Z,50.98
2022-10-08T16:49:18.462Z,51.17
2022-10-08T16:51:57.413Z,51.49
2022-10-08T16:54:27.407Z,51.65
2022-10-08T16:56:56.958Z,51.45
2022-10-08T16:59:28.961Z,51.87
2022-10-08T17:01:58.099Z,52.05
2022-10-08T17:04:26.664Z,52.28
2022-10-08T17:06:53.531Z,52.80
2022-10-08T17:09:25.435Z,53.29
2022-10-08T17:11:52.622Z,53.20
2022-10-08T17:14:19.387Z,53.46
2022-10-08T17:16:46.237Z,53.78
2022-10-08T17:19:13.299Z,54.25
2022-10-08T17:21:40.665Z,54.62
2022-10-08T17:24:07.944Z,54.62
2022-10-08T17:26:37.868Z,54.67
2022-10-08T17:29:10.279Z,54.81
2022-10-08T17:31:39.771Z,55.21
2022-10-08T17:34:06.714Z,55.35
2022-10-08T17:36:35.788Z,55.67
2022-10-08T17:39:06.993Z,56.81
2022-10-08T17:41:36.027Z,55.90
2022-10-08T17:44:07.862Z,56.43
2022-10-08T17:46:43.142Z,56.15
2022-10-08T17:49:10.373Z,56.03
2022-10-08T17:51:39.835Z,56.20
2022-10-08T17:54:10.378Z,56.84
2022-10-08T17:56:39.197Z,57.00
2022-10-08T17:59:08.110Z,56.91
2022-10-08T18:01:39.190Z,56.92
2022-10-08T18:04:10.152Z,56.70
2022-10-08T18:06:41.061Z,57.18
2022-10-08T18:09:11.559Z,57.39
2022-10-08T18:11:44.876Z,57.17
2022-10-08T18:14:12.059Z,57.45
2022-10-08T18:16:44.259Z,57.75
2022-10-08T18:19:19.687Z,58.04
2022-10-08T18:21:46.722Z,58.81
2022-10-08T18:24:14.044Z,58.46
2022-10-08T18:26:43.398Z,58.30
2022-10-08T18:29:14.599Z,59.01
2022-10-08T18:31:45.079Z,59.55
2022-10-08T18:34:18.233Z,59.66
2022-10-08T18:36:45.620Z,59.42
2022-10-08T18:39:16.723Z,60.12
2022-10-08T18:41:45.720Z,60.06
2022-10-08T18:44:23.541Z,60.44
2022-10-08T18:46:50.953Z,60.73
2022-10-08T18:49:24.299Z,60.82
2022-10-08T18:51:51.059Z,60.85
2022-10-08T18:54:22.531Z,60.95
2022-10-08T18:56:49.259Z,61.09
2022-10-08T18:59:19.508Z,61.17
2022-10-08T19:01:47.639Z,61.27
2022-10-08T19:04:19.814Z,61.41
2022-10-08T19:06:50.082Z,61.39
2022-10-08T19:09:17.012Z,61.29
2022-10-08T19:11:46.852Z,61.46
2022-10-08T19:14:16.115Z,61.51
2022-10-08T19:16:45.285Z,62.02
2022-10-08T19:19:13.061Z,61.97
2022-10-08T19:21:42.195Z,61.60
2022-10-08T19:24:14.002Z,61.42
2022-10-08T19:26:43.303Z,61.51
2022-10-08T19:29:12.777Z,61.97
2022-10-08T19:31:39.446Z,61.61
2022-10-08T19:34:07.616Z,61.67
2022-10-08T19:36:40.444Z,61.44
2022-10-08T19:39:14.040Z,61.81
2022-10-08T19:41:44.182Z,61.84
2022-10-08T19:44:11.811Z,62.36
2022-10-08T19:46:38.793Z,62.12
2022-10-08T19:49:06.861Z,62.00
2022-10-08T19:51:36.217Z,62.65
2022-10-08T19:54:06.732Z,62.83
2022-10-08T19:56:33.520Z,63.18
2022-10-08T19:59:02.497Z,63.09
2022-10-08T20:01:36.600Z,63.38
2022-10-08T20:04:09.699Z,63.46
2022-10-08T20:06:39.165Z,63.83
2022-10-08T20:09:13.181Z,63.59
2022-10-08T20:11:41.046Z,63.95
2022-10-08T20:14:07.805Z,64.02
2022-10-08T20:16:37.141Z,63.97
2022-10-08T20:19:16.730Z,63.95
2022-10-08T20:21:43.806Z,64.79
2022-10-08T20:24:10.861Z,64.35
2022-10-08T20:26:39.635Z,64.17
2022-10-08T20:29:13.153Z,64.31
2022-10-08T20:31:50.102Z,64.41
2022-10-08T20:34:19.693Z,64.32
2022-10-08T20:36:48.944Z,64.46
2022-10-08T20:39:17.670Z,64.03
2022-10-08T20:41:46.966Z,63.97
2022-10-08T20:44:16.534Z,63.83
2022-10-08T20:46:46.010Z,63.98
2022-10-08T20:49:13.438Z,63.83
2022-10-08T20:51:41.674Z,64.18
2022-10-08T20:54:10.491Z,64.25
2022-10-08T20:56:40.677Z,64.07
2022-10-08T20:59:09.161Z,64.32
2022-10-08T21:01:38.328Z,64.39
2022-10-08T21:04:05.837Z,64.16
2022-10-08T21:06:43.821Z,64.37
2022-10-08T21:09:11.409Z,64.68
2022-10-08T21:11:38.673Z,64.69
2022-10-08T21:14:09.169Z,64.66
2022-10-08T21:16:38.463Z,64.62
2022-10-08T21:19:06.312Z,64.89
2022-10-08T21:21:33.656Z,64.71
2022-10-08T21:24:02.702Z,64.50
2022-10-08T21:26:47.484Z,65.26
2022-10-08T21:29:14.540Z,64.84
2022-10-08T21:31:44.101Z,64.81
2022-10-08T21:34:12.429Z,64.81
2022-10-08T21:36:40.543Z,64.62
2022-10-08T21:39:08.420Z,64.54
2022-10-08T21:41:36.683Z,64.32
2022-10-08T21:44:06.499Z,64.36
2022-10-08T21:46:36.487Z,64.35
2022-10-08T21:49:06.154Z,64.21
2022-10-08T21:51:34.019Z,64.13
2022-10-08T21:54:04.511Z,64.18
2022-10-08T21:56:32.861Z,64.41
2022-10-08T21:59:03.829Z,64.69
2022-10-08T22:01:35.135Z,64.83
2022-10-08T22:04:06.013Z,64.89
2022-10-08T22:06:34.199Z,64.96
2022-10-08T22:09:05.317Z,65.50
2022-10-08T22:11:34.710Z,65.50
2022-10-08T22:14:01.208Z,66.16
2022-10-08T22:16:32.744Z,65.77
2022-10-08T22:18:59.613Z,66.05
2022-10-08T22:21:26.399Z,66.40
2022-10-08T22:23:53.640Z,66.77
2022-10-08T22:26:31.875Z,66.92
2022-10-08T22:28:58.720Z,67.22
2022-10-08T22:31:28.205Z,67.35
2022-10-08T22:33:55.182Z,67.44
2022-10-08T22:36:27.430Z,67.64
2022-10-08T22:38:57.366Z,67.71
2022-10-08T22:41:26.628Z,67.34
2022-10-08T22:43:53.286Z,67.55
2022-10-08T22:46:23.026Z,67.54
2022-10-08T22:48:51.917Z,67.50
2022-10-08T22:51:20.750Z,67.46
2022-10-08T22:53:51.611Z,67.18
2022-10-08T22:56:23.642Z,67.33
2022-10-08T22:58:50.819Z,67.32
2022-10-08T23:01:22.796Z,67.76
2022-10-08T23:03:49.933Z,67.33
2022-10-08T23:06:20.992Z,67.47
2022-10-08T23:08:52.508Z,67.57
2022-10-08T23:11:19.222Z,67.64
2022-10-08T23:13:49.897Z,67.25
2022-10-08T23:16:16.721Z,67.22
2022-10-08T23:18:45.835Z,67.47
2022-10-08T23:21:16.055Z,67.36
2022-10-08T23:23:46.903Z,67.42
2022-10-08T23:26:14.536Z,67.61
2022-10-08T23:28:44.323Z,67.51
2022-10-08T23:31:18.396Z,67.76
2022-10-08T23:33:49.882Z,67.99
2022-10-08T23:36:19.071Z,68.00
2022-10-08T23:38:45.777Z,68.07
2022-10-08T23:41:12.944Z,68.33
2022-10-08T23:43:41.996Z,68.54
2022-10-08T23:46:10.291Z,69.79
2022-10-08T23:48:37.426Z,69.92
2022-10-08T23:51:04.716Z,69.97
2022-10-08T23:53:31.754Z,69.63
2022-10-08T23:55:58.429Z,69.81
2022-10-08T23:58:25.342Z,70.01
